Avoca, Texas
Current Conditions -  °F | °C
As of 4:52 AM on Friday 31 Oct 2014 (Local Time) from KABI Reporting Station
Clear Clear  
Wind Chill: 53°   Ceiling: Unl
Heat Index: 53°   Visibility: 10mi
Dew Point: 39°   Wind: 8mph
Humidity: 59%   Direction: 350°N
Pressure: 30.29"   Gusts: NA
Location:  32.87°N, 99.72°W
Report Text: KABI 310952Z 35007KT 10SM CLR 12/04 A3029 RMK AO2 SLP238 T01170039
Loading
Personal Weather Stations






























Interactive Weather Map
Tropical Storm Tracking
New forecast layout! Learn more

10-Day Weather Forecast

Advertisements
Track Severe Weather on mobile